Hlavní strana
METAR-TAF:

METAR-TAF

Letiště :

Jakutsk, Rusko

zeměpisná šířka: 62-01N, zeměpisná délka: 129-43E, výška: 103 m

Aktuální stav počasí

Zpráva byla vytvořena před 40 minutami, v 18:30 UTC
Jihovýchodní vítr 4 kt
Teplota 16°C
Vlhkost vzduchu 72%
Tlak 1014 hPa
Viditelnost 10 km a více
Žádná oblačnost pod 1500 m, nevyskytují se cumulonimby.

METAR: UEEE 151830Z 14002MPS CAVOK 16/11 Q1014 R23L/09//60 NOSIG RMK QFE751

Čas: 04:10 (19:10 UTC)

Předpověď počasí

Zpráva byla vytvořena před 2 hodinami a 10 minutami, v 17:00 UTC
Předpověď platná od 15 v 18 UTC do 16 v 24 UTC
Jihojihovýchodní vítr 6 kt s nárazy do 16 kt
Viditelnost 10 km a více
Žádná oblačnost pod 1500 m, nevyskytují se cumulonimby.

TAF: UEEE 151700Z 1518/1624 16003G08MPS CAVOK

Stav a předpovědi počasí z více než 4 000 letišť (zprávy METAR a TAF).

Červené a žluté tečky na mapě představují dostupné meteorologické stanice.

Když kurzor umístíte na tečku, zobrazí se název stanice.

Pak kliknutím zobrazíte stav a předpověď počasí.

Chcete-li změnit mapu, kliknutím na zelené tlačítko se znaménkem +mapu přiblížíte, kliknutím na zelené tlačítko se znaménkem – mapu oddálíte a kliknutím na zelené šipky přejdete na sousední mapy.


METAR-TAF: